createdAt,value
2022-10-02T00:04:03.686Z,2.83
2022-10-02T00:11:44.659Z,2.42
2022-10-02T00:19:20.368Z,2.10
2022-10-02T00:27:01.059Z,1.60
2022-10-02T00:34:43.670Z,1.98
2022-10-02T00:42:50.631Z,1.70
2022-10-02T00:50:36.178Z,1.30
2022-10-02T00:58:29.766Z,1.90
2022-10-02T01:06:05.842Z,1.80
2022-10-02T01:13:41.177Z,1.67
2022-10-02T01:21:21.048Z,1.85
2022-10-02T01:28:57.103Z,1.60
2022-10-02T01:36:31.466Z,1.52
2022-10-02T01:44:06.808Z,2.13
2022-10-02T01:51:55.167Z,1.70
2022-10-02T01:59:45.954Z,2.10
2022-10-02T02:07:27.378Z,1.30
2022-10-02T02:15:07.826Z,1.55
2022-10-02T02:22:46.448Z,1.70
2022-10-02T02:30:22.884Z,1.67
2022-10-02T02:38:02.091Z,1.63
2022-10-02T02:45:39.832Z,1.60
2022-10-02T02:53:18.392Z,1.63
2022-10-02T03:00:53.628Z,1.77
2022-10-02T03:08:31.533Z,1.75
2022-10-02T03:16:19.978Z,1.48
2022-10-02T03:24:02.380Z,1.90
2022-10-02T03:31:38.305Z,1.80
2022-10-02T03:39:24.791Z,2.05
2022-10-02T03:47:00.764Z,1.95
2022-10-02T03:54:36.814Z,1.70
2022-10-02T04:02:22.484Z,1.65
2022-10-02T04:10:08.825Z,2.10
2022-10-02T04:17:49.079Z,2.10
2022-10-02T04:25:27.399Z,1.75
2022-10-02T04:33:12.782Z,1.70
2022-10-02T04:49:09.780Z,1.40
2022-10-02T04:57:01.037Z,2.35
2022-10-02T05:05:01.440Z,1.95
2022-10-02T05:12:44.941Z,1.50
2022-10-02T05:20:50.262Z,2.25
2022-10-02T05:28:38.917Z,1.23
2022-10-02T05:36:46.746Z,2.33
2022-10-02T05:44:25.564Z,3.03
2022-10-02T05:52:04.334Z,1.55
2022-10-02T05:59:46.112Z,1.65
2022-10-02T06:07:22.761Z,1.83
2022-10-02T06:15:02.506Z,2.75
2022-10-02T06:22:45.390Z,1.52
2022-10-02T06:30:21.688Z,2.00
2022-10-02T06:38:11.881Z,1.90
2022-10-02T06:45:53.247Z,2.00
2022-10-02T06:53:49.885Z,2.22
2022-10-02T07:01:37.121Z,2.90
2022-10-02T07:09:47.695Z,3.25
2022-10-02T07:17:32.743Z,3.28
2022-10-02T07:25:39.711Z,3.22
2022-10-02T07:33:30.028Z,4.40
2022-10-02T07:41:15.258Z,4.63
2022-10-02T07:49:14.304Z,4.82
2022-10-02T07:56:51.387Z,4.93
2022-10-02T08:04:34.642Z,4.05
2022-10-02T08:12:28.954Z,4.93
2022-10-02T08:20:09.238Z,4.40
2022-10-02T08:27:52.315Z,4.20
2022-10-02T08:35:37.285Z,4.70
2022-10-02T08:44:00.046Z,4.55
2022-10-02T08:52:04.303Z,3.83
2022-10-02T08:59:58.468Z,4.45
2022-10-02T09:08:18.455Z,4.05
2022-10-02T09:16:05.822Z,4.40
2022-10-02T09:24:12.747Z,4.03
2022-10-02T09:32:27.635Z,3.80
2022-10-02T09:40:44.275Z,3.50
2022-10-02T09:49:00.257Z,3.65
2022-10-02T09:57:03.950Z,2.73
2022-10-02T10:05:19.036Z,2.65
2022-10-02T10:13:34.171Z,2.67
2022-10-02T10:21:27.957Z,2.70
2022-10-02T10:29:39.957Z,3.95
2022-10-02T10:37:52.522Z,3.63
2022-10-02T10:45:42.042Z,4.63
2022-10-02T10:53:43.257Z,4.63
2022-10-02T11:01:21.051Z,3.45
2022-10-02T11:09:26.812Z,4.00
2022-10-02T11:17:33.282Z,4.60
2022-10-02T11:25:46.368Z,4.88
2022-10-02T11:33:38.437Z,4.55
2022-10-02T11:41:28.682Z,3.65
2022-10-02T11:49:26.269Z,3.15
2022-10-02T11:57:15.312Z,2.42
2022-10-02T12:05:00.723Z,3.13
2022-10-02T12:20:47.012Z,4.25
2022-10-02T12:28:30.178Z,4.68
2022-10-02T12:36:17.146Z,4.25
2022-10-02T12:44:13.683Z,2.78
2022-10-02T12:52:08.904Z,3.70
2022-10-02T12:59:49.930Z,2.63
2022-10-02T13:08:02.291Z,2.72
2022-10-02T13:15:45.212Z,2.50
2022-10-02T13:23:26.950Z,2.65
2022-10-02T13:31:12.880Z,2.30
2022-10-02T13:39:11.090Z,1.92
2022-10-02T13:47:07.030Z,1.40
2022-10-02T13:55:13.244Z,1.45
2022-10-02T14:10:40.075Z,1.17
2022-10-02T14:18:37.415Z,1.10
2022-10-02T14:26:18.076Z,0.63
2022-10-02T14:34:10.813Z,0.80
2022-10-02T14:42:07.663Z,0.70
2022-10-02T14:49:59.372Z,0.70
2022-10-02T14:57:58.674Z,1.02
2022-10-02T15:05:47.830Z,1.00
2022-10-02T15:13:31.294Z,1.48
2022-10-02T15:21:24.342Z,1.15
2022-10-02T15:29:12.521Z,0.98
2022-10-02T15:37:14.378Z,1.25
2022-10-02T15:45:14.235Z,0.90
2022-10-02T15:53:02.934Z,1.27
2022-10-02T16:01:00.795Z,1.05
2022-10-02T16:08:53.860Z,0.85
2022-10-02T16:16:47.755Z,1.55
2022-10-02T16:24:49.216Z,1.77
2022-10-02T16:32:31.055Z,1.33
2022-10-02T16:40:23.199Z,1.63
2022-10-02T16:48:07.812Z,1.45
2022-10-02T16:55:46.298Z,1.40
2022-10-02T17:03:30.521Z,1.45
2022-10-02T17:11:15.512Z,1.98
2022-10-02T17:18:56.441Z,1.90
2022-10-02T17:26:40.757Z,2.15
2022-10-02T17:34:21.418Z,3.08
2022-10-02T17:42:06.279Z,2.30
2022-10-02T17:49:54.534Z,2.33
2022-10-02T17:57:52.956Z,2.30
2022-10-02T18:05:38.335Z,2.65
2022-10-02T18:21:29.006Z,3.10
2022-10-02T18:29:37.106Z,3.15
2022-10-02T18:37:28.223Z,3.05
2022-10-02T18:45:14.784Z,2.78
2022-10-02T18:53:00.687Z,3.22
2022-10-02T19:01:05.638Z,3.20
2022-10-02T19:09:02.101Z,2.92
2022-10-02T19:16:37.558Z,2.83
2022-10-02T19:24:15.270Z,2.42
2022-10-02T19:31:50.927Z,2.72
2022-10-02T19:39:30.583Z,2.83
2022-10-02T19:47:16.832Z,3.72
2022-10-02T19:54:50.488Z,2.90
2022-10-02T20:02:29.252Z,3.17
2022-10-02T20:10:07.839Z,2.35
2022-10-02T20:17:43.440Z,2.08
2022-10-02T20:25:22.352Z,2.50
2022-10-02T20:33:02.933Z,2.88
2022-10-02T20:40:38.496Z,2.72
2022-10-02T20:49:06.908Z,1.73
2022-10-02T20:57:14.825Z,2.33
2022-10-02T21:05:16.130Z,2.45
2022-10-02T21:13:04.175Z,2.65
2022-10-02T21:21:21.831Z,1.63
2022-10-02T21:29:16.716Z,1.95
2022-10-02T21:36:59.552Z,2.30
2022-10-02T21:45:23.835Z,1.95
2022-10-02T21:53:34.016Z,1.80
2022-10-02T22:01:34.007Z,2.15
2022-10-02T22:09:35.377Z,1.80
2022-10-02T22:17:23.717Z,3.00
2022-10-02T22:25:20.403Z,1.77
2022-10-02T22:33:13.034Z,3.40
2022-10-02T22:40:53.290Z,2.25
2022-10-02T22:48:37.223Z,2.10
2022-10-02T22:56:26.651Z,1.67
2022-10-02T23:04:07.814Z,2.13
2022-10-02T23:11:48.029Z,3.05
2022-10-02T23:19:26.970Z,1.95
2022-10-02T23:27:12.015Z,2.35
2022-10-02T23:34:52.942Z,2.50
2022-10-02T23:42:36.194Z,2.58
2022-10-02T23:50:22.724Z,2.53
2022-10-02T23:58:22.337Z,2.22
